Time;durP1;ratioP1;P1;durP2;ratioP2;P2;SDS_P1;SDS_P2;PMS_P1;PMS_P2;Temp;Humidity;BMP_temperature;BMP_pressure;BME280_temperature;BME280_humidity;BME280_pressure;Samples;Min_cycle;Max_cycle;Signal;HPM_P1;HPM_P2
2023/12/18 00:00:17;;;;;;;67.18;63.95;;;;;;;8.83;66.32;103205.41;5017951;28;20042;-72
2023/12/18 00:02:43;;;;;;;65.20;61.97;;;;;;;8.82;66.16;103204.56;5011233;28;20038;-70
2023/12/18 00:05:09;;;;;;;64.57;61.08;;;;;;;8.81;66.02;103207.41;5009412;28;20470;-70
2023/12/18 00:07:35;;;;;;;63.20;60.20;;;;;;;8.78;65.97;103205.91;5010592;28;20065;-71
2023/12/18 00:10:00;;;;;;;62.75;59.45;;;;;;;8.77;66.09;103204.25;5011321;28;20475;-71
2023/12/18 00:12:25;;;;;;;60.85;57.83;;;;;;;8.75;66.11;103202.72;5022771;28;20061;-70
2023/12/18 00:14:51;;;;;;;63.05;59.92;;;;;;;8.74;66.19;103207.25;5017459;28;20034;-71
2023/12/18 00:17:16;;;;;;;67.45;64.22;;;;;;;8.74;66.20;103212.63;5010559;28;20109;-71
2023/12/18 00:19:42;;;;;;;63.65;60.45;;;;;;;8.73;66.22;103200.19;5016142;28;20477;-70
2023/12/18 00:22:07;;;;;;;68.05;64.88;;;;;;;8.74;66.18;103207.25;5026327;28;20124;-71
2023/12/18 00:24:33;;;;;;;59.35;56.42;;;;;;;8.73;66.20;103202.03;5037526;28;20090;-70
2023/12/18 00:26:58;;;;;;;65.57;62.30;;;;;;;8.71;66.31;103190.59;4981508;28;1120674;-70
2023/12/18 00:29:23;;;;;;;63.38;60.38;;;;;;;8.71;66.33;103187.91;5024693;28;20046;-70
2023/12/18 00:31:49;;;;;;;64.63;61.55;;;;;;;8.70;66.33;103180.84;5030190;28;20045;-71
2023/12/18 00:34:14;;;;;;;62.58;59.65;;;;;;;8.68;66.29;103183.69;5031025;28;20048;-71
2023/12/18 00:36:40;;;;;;;62.03;59.03;;;;;;;8.70;66.60;103183.53;5030796;28;20021;-70
2023/12/18 00:39:05;;;;;;;65.68;62.65;;;;;;;8.69;66.45;103177.28;5012489;28;20700;-70
2023/12/18 00:41:31;;;;;;;62.53;59.42;;;;;;;8.70;65.98;103178.13;5029892;28;20029;-71
2023/12/18 00:43:57;;;;;;;61.95;58.95;;;;;;;8.70;66.37;103175.44;5029358;28;20045;-70
2023/12/18 00:46:22;;;;;;;63.75;60.75;;;;;;;8.69;66.45;103174.59;5026917;28;20554;-70
2023/12/18 00:48:48;;;;;;;60.58;57.72;;;;;;;8.69;66.37;103181.84;5031236;28;20120;-72
2023/12/18 00:51:13;;;;;;;60.72;57.88;;;;;;;8.67;66.25;103173.94;5023502;28;20030;-70
2023/12/18 00:53:38;;;;;;;62.63;59.63;;;;;;;8.67;66.60;103179.31;5030557;28;20083;-70
2023/12/18 00:56:04;;;;;;;69.25;65.75;;;;;;;8.65;66.35;103181.34;5033356;28;20056;-72
2023/12/18 00:58:30;;;;;;;61.78;58.92;;;;;;;8.65;66.41;103181.34;5035780;28;20418;-71
2023/12/18 01:00:55;;;;;;;61.85;58.85;;;;;;;8.66;66.34;103181.16;5030038;28;20041;-71
2023/12/18 01:03:22;;;;;;;66.80;63.67;;;;;;;8.65;66.40;103178.66;5033732;28;20037;-71
2023/12/18 01:05:47;;;;;;;61.08;58.17;;;;;;;8.65;66.45;103175.94;5047823;28;20109;-71
2023/12/18 01:08:12;;;;;;;66.78;63.60;;;;;;;8.64;66.27;103185.91;5022857;28;20200;-70
2023/12/18 01:10:38;;;;;;;61.40;58.47;;;;;;;8.63;66.31;103181.50;5021395;28;20030;-71
2023/12/18 01:13:04;;;;;;;64.07;60.95;;;;;;;8.62;66.58;103169.06;5025931;28;22057;-70
2023/12/18 01:15:29;;;;;;;64.35;61.17;;;;;;;8.60;66.30;103173.75;5032983;28;20164;-72
2023/12/18 01:17:55;;;;;;;64.25;60.95;;;;;;;8.61;66.67;103172.75;5023244;28;20473;-70
2023/12/18 01:20:20;;;;;;;67.45;64.05;;;;;;;8.62;66.24;103176.31;5038666;28;20026;-71
2023/12/18 01:22:45;;;;;;;61.40;58.38;;;;;;;8.63;66.39;103178.81;5014801;28;20036;-71
2023/12/18 01:25:11;;;;;;;63.78;60.75;;;;;;;8.64;66.68;103172.44;5044015;28;20498;-70
2023/12/18 01:27:36;;;;;;;65.18;62.22;;;;;;;8.64;66.53;103182.34;5024562;28;20099;-71
2023/12/18 01:30:02;;;;;;;67.05;63.65;;;;;;;8.64;66.51;103176.94;5019450;28;20042;-71
2023/12/18 01:32:27;;;;;;;64.30;61.38;;;;;;;8.64;66.37;103171.56;5027754;28;20119;-70
2023/12/18 01:34:54;;;;;;;64.43;61.45;;;;;;;8.62;66.44;103179.84;5032686;28;20025;-71
2023/12/18 01:37:20;;;;;;;64.88;61.67;;;;;;;8.63;66.68;103177.97;5027915;28;20081;-71
2023/12/18 01:39:45;;;;;;;64.57;61.47;;;;;;;8.63;66.45;103181.50;5030605;28;20489;-70
2023/12/18 01:42:11;;;;;;;65.88;62.58;;;;;;;8.63;66.48;103176.09;5015172;28;20052;-71
2023/12/18 01:44:36;;;;;;;66.45;62.95;;;;;;;8.62;66.26;103179.00;5032807;28;20466;-71
2023/12/18 01:47:02;;;;;;;65.93;62.50;;;;;;;8.59;66.26;103171.22;5032583;28;20079;-70
2023/12/18 01:49:28;;;;;;;66.47;63.05;;;;;;;8.58;66.65;103173.09;5028985;28;20126;-70
2023/12/18 01:51:53;;;;;;;64.20;60.53;;;;;;;8.58;66.58;103165.00;5014983;28;20171;-72
2023/12/18 01:54:22;;;;;;;62.65;59.55;;;;;;;8.57;66.20;103168.72;5031765;28;20048;-70
2023/12/18 01:56:50;;;;;;;60.95;58.05;;;;;;;8.58;66.57;103172.25;5019226;28;20042;-71
2023/12/18 01:59:15;;;;;;;65.43;62.20;;;;;;;8.56;66.47;103171.56;5044404;28;20128;-71
2023/12/18 02:01:42;;;;;;;63.35;60.45;;;;;;;8.58;66.74;103169.56;5031829;28;20121;-71
2023/12/18 02:04:07;;;;;;;69.60;66.10;;;;;;;8.59;66.76;103176.63;5012825;28;20041;-69
2023/12/18 02:06:33;;;;;;;64.03;61.08;;;;;;;8.60;66.57;103172.94;5041381;28;20397;-71
2023/12/18 02:08:58;;;;;;;63.50;60.42;;;;;;;8.61;66.44;103178.13;5025885;28;20069;-70
2023/12/18 02:11:24;;;;;;;63.60;60.30;;;;;;;8.60;66.44;103165.69;5026091;28;20073;-71
2023/12/18 02:13:50;;;;;;;66.30;62.40;;;;;;;8.62;66.69;103162.84;5019294;28;20457;-72
2023/12/18 02:16:15;;;;;;;63.60;60.60;;;;;;;8.61;66.41;103156.56;5017966;28;20041;-70
2023/12/18 02:18:47;;;;;;;61.75;58.95;;;;;;;8.62;66.60;103157.44;5023191;28;20033;-70
2023/12/18 02:21:19;;;;;;;63.50;60.50;;;;;;;8.62;66.29;103152.88;5028189;28;20057;-71
2023/12/18 02:23:45;;;;;;;66.60;63.50;;;;;;;8.62;66.44;103152.06;5016515;28;20066;-71
2023/12/18 02:26:10;;;;;;;64.65;61.55;;;;;;;8.62;66.66;103143.97;5015773;28;20081;-70
2023/12/18 02:28:36;;;;;;;67.53;64.32;;;;;;;8.62;66.60;103144.81;5027442;28;20038;-71
2023/12/18 02:31:03;;;;;;;64.95;61.35;;;;;;;8.62;66.57;103147.50;5025836;28;20052;-71
2023/12/18 02:33:28;;;;;;;67.85;64.60;;;;;;;8.62;66.52;103139.41;5015118;28;20889;-70
2023/12/18 02:35:59;;;;;;;64.80;61.80;;;;;;;8.63;66.59;103151.88;5021659;28;20044;-70
2023/12/18 02:38:25;;;;;;;63.60;60.75;;;;;;;8.63;66.69;103148.34;5032327;28;20397;-70
2023/12/18 02:40:50;;;;;;;63.42;60.42;;;;;;;8.62;66.61;103150.19;5018929;28;20049;-71
2023/12/18 02:43:16;;;;;;;67.10;63.63;;;;;;;8.63;66.68;103140.25;5016221;28;20041;-70
2023/12/18 02:45:41;;;;;;;64.90;61.63;;;;;;;8.61;66.81;103137.72;5016748;28;20474;-71
2023/12/18 02:48:07;;;;;;;67.40;63.22;;;;;;;8.61;66.64;103135.03;5030219;28;20029;-70
2023/12/18 02:50:32;;;;;;;65.68;62.50;;;;;;;8.63;66.63;103132.16;5019318;28;20049;-70
2023/12/18 02:52:57;;;;;;;63.72;60.83;;;;;;;8.63;66.69;103146.47;5020224;28;20038;-70
2023/12/18 02:55:23;;;;;;;63.05;60.03;;;;;;;8.62;66.52;103128.63;5027068;28;20490;-71
2023/12/18 02:57:48;;;;;;;64.22;61.30;;;;;;;8.62;66.69;103128.63;5030563;28;20567;-70
2023/12/18 03:00:14;;;;;;;67.50;64.15;;;;;;;8.61;66.67;103132.31;5042180;28;20048;-70
2023/12/18 03:02:40;;;;;;;64.05;60.90;;;;;;;8.61;66.63;103129.63;5039610;28;20045;-71
2023/12/18 03:05:05;;;;;;;66.63;63.30;;;;;;;8.59;66.95;103118.22;5024002;28;20124;-71
2023/12/18 03:07:31;;;;;;;60.17;57.38;;;;;;;8.59;66.80;103117.34;5023592;28;20164;-70
2023/12/18 03:09:56;;;;;;;64.07;61.03;;;;;;;8.58;66.87;103107.59;5038214;28;20028;-70
2023/12/18 03:12:22;;;;;;;65.68;62.58;;;;;;;8.58;66.89;103121.91;5030909;28;20042;-71
2023/12/18 03:14:47;;;;;;;63.13;60.20;;;;;;;8.59;66.79;103110.13;5028969;28;20029;-71
2023/12/18 03:17:12;;;;;;;66.53;63.08;;;;;;;8.60;66.68;103116.34;5028223;28;20490;-70
2023/12/18 03:19:38;;;;;;;61.03;58.10;;;;;;;8.59;66.77;103106.56;5030601;28;20038;-71
2023/12/18 03:22:03;;;;;;;70.82;67.57;;;;;;;8.60;66.82;103110.97;5025679;28;20037;-71
2023/12/18 03:24:28;;;;;;;65.50;62.50;;;;;;;8.59;66.84;103106.56;5025856;28;20037;-72
2023/12/18 03:26:54;;;;;;;63.58;60.38;;;;;;;8.60;66.89;103108.28;5029345;28;20136;-71
2023/12/18 03:29:19;;;;;;;63.67;60.67;;;;;;;8.59;66.91;103112.81;5018971;28;20371;-71
2023/12/18 03:31:44;;;;;;;61.88;59.08;;;;;;;8.59;66.88;103112.81;5025076;28;20121;-71
2023/12/18 03:34:10;;;;;;;69.28;65.47;;;;;;;8.61;66.94;103115.31;5018306;28;20461;-70
2023/12/18 03:36:35;;;;;;;65.95;62.50;;;;;;;8.61;66.83;103110.78;5017820;28;20037;-71
2023/12/18 03:39:01;;;;;;;61.45;58.42;;;;;;;8.62;66.78;103115.16;5030658;28;20041;-70
2023/12/18 03:41:26;;;;;;;62.78;59.78;;;;;;;8.63;66.76;103113.31;5030714;28;20067;-70
2023/12/18 03:43:51;;;;;;;68.78;65.60;;;;;;;8.61;67.01;103118.84;5024651;28;20028;-70
2023/12/18 03:46:17;;;;;;;63.65;60.42;;;;;;;8.62;66.84;103117.88;5029570;28;20083;-71
2023/12/18 03:48:42;;;;;;;63.50;60.35;;;;;;;8.63;66.72;103124.91;5028431;28;20565;-70
2023/12/18 03:51:10;;;;;;;67.63;64.25;;;;;;;8.62;66.88;103120.56;5012157;28;20038;-70
2023/12/18 03:53:35;;;;;;;67.57;64.18;;;;;;;8.63;66.86;103124.09;5025834;28;20026;-70
2023/12/18 03:56:00;;;;;;;61.58;58.00;;;;;;;8.62;66.78;103134.03;5017874;28;20026;-70
2023/12/18 03:58:26;;;;;;;64.03;61.10;;;;;;;8.61;66.70;103129.63;5012795;28;20067;-71
2023/12/18 04:00:51;;;;;;;64.40;61.38;;;;;;;8.63;66.91;103130.31;5011184;28;20451;-71
2023/12/18 04:03:17;;;;;;;65.32;62.00;;;;;;;8.64;67.04;103129.31;5015232;28;20034;-70
2023/12/18 04:05:42;;;;;;;62.13;59.20;;;;;;;8.64;67.01;103109.59;5020841;28;20585;-70
2023/12/18 04:08:07;;;;;;;60.22;57.38;;;;;;;8.64;66.85;103110.47;5033974;28;20028;-71
2023/12/18 04:10:33;;;;;;;64.63;61.13;;;;;;;8.65;66.68;103114.81;5029760;28;20543;-72
2023/12/18 04:12:58;;;;;;;58.85;56.00;;;;;;;8.66;66.84;103111.09;5031900;28;20030;-69
2023/12/18 04:15:24;;;;;;;62.92;59.83;;;;;;;8.66;66.75;103100.31;5019734;28;20033;-70
2023/12/18 04:17:49;;;;;;;60.40;57.65;;;;;;;8.68;66.81;103107.41;5017951;28;20465;-71
2023/12/18 04:20:16;;;;;;;65.32;62.22;;;;;;;8.68;66.67;103104.72;5014389;28;20401;-71
2023/12/18 04:22:41;;;;;;;64.28;60.95;;;;;;;8.68;66.48;103096.63;5011785;28;20034;-69
2023/12/18 04:25:07;;;;;;;63.47;59.53;;;;;;;8.69;66.83;103106.38;5029242;28;20083;-71
2023/12/18 04:27:32;;;;;;;65.95;62.78;;;;;;;8.69;66.96;103107.22;5029321;28;20555;-71
2023/12/18 04:29:57;;;;;;;64.25;61.13;;;;;;;8.70;66.82;103102.69;5026862;28;20634;-70
2023/12/18 04:32:23;;;;;;;61.88;58.80;;;;;;;8.69;66.80;103101.00;5024425;28;20030;-70
2023/12/18 04:34:48;;;;;;;63.65;60.58;;;;;;;8.69;66.71;103099.13;5033206;28;20037;-70
2023/12/18 04:37:13;;;;;;;72.68;69.00;;;;;;;8.70;66.90;103105.38;5047888;28;20529;-70
2023/12/18 04:39:39;;;;;;;66.30;62.42;;;;;;;8.69;66.80;103101.84;5025069;28;20033;-72
2023/12/18 04:42:04;;;;;;;62.88;59.67;;;;;;;8.69;66.94;103107.22;5030000;28;20034;-71
2023/12/18 04:44:30;;;;;;;59.67;56.88;;;;;;;8.70;66.84;103106.22;5029028;28;20385;-70
2023/12/18 04:46:56;;;;;;;60.28;57.38;;;;;;;8.70;66.93;103102.69;5016126;28;20072;-70
2023/12/18 04:49:22;;;;;;;63.92;60.90;;;;;;;8.69;66.79;103104.53;5026263;28;20029;-70
2023/12/18 04:51:47;;;;;;;63.10;60.08;;;;;;;8.70;66.86;103108.91;5024842;28;20038;-70
2023/12/18 04:54:13;;;;;;;59.40;56.63;;;;;;;8.70;66.92;103114.31;5043818;28;20045;-69
2023/12/18 04:56:38;;;;;;;57.75;55.10;;;;;;;8.70;66.88;103111.63;5038857;28;20425;-70
2023/12/18 04:59:03;;;;;;;62.00;59.17;;;;;;;8.71;66.85;103102.50;5032418;28;20540;-71
2023/12/18 05:01:29;;;;;;;63.55;60.35;;;;;;;8.70;67.07;103100.84;5028923;28;20034;-71
2023/12/18 05:03:54;;;;;;;66.68;63.20;;;;;;;8.71;66.78;103102.50;5023576;28;20111;-71
2023/12/18 05:06:22;;;;;;;64.82;61.58;;;;;;;8.72;66.90;103092.56;5030149;28;20603;-70
2023/12/18 05:08:49;;;;;;;61.72;58.83;;;;;;;8.71;66.96;103094.41;5014880;28;20101;-70
2023/12/18 05:11:17;;;;;;;64.80;61.33;;;;;;;8.73;66.72;103092.41;5036625;28;20484;-71
2023/12/18 05:13:42;;;;;;;69.90;64.07;;;;;;;8.72;66.84;103093.44;5024235;28;20025;-70
2023/12/18 05:16:08;;;;;;;63.15;58.20;;;;;;;8.72;66.76;103081.78;5014438;28;20371;-71
2023/12/18 05:18:33;;;;;;;59.10;56.38;;;;;;;8.72;66.91;103088.03;5031514;28;20056;-71
2023/12/18 05:20:59;;;;;;;63.35;60.15;;;;;;;8.73;66.75;103081.63;5032094;28;20258;-70
2023/12/18 05:23:24;;;;;;;65.65;61.65;;;;;;;8.73;66.67;103088.88;5031796;28;20042;-71
2023/12/18 05:25:50;;;;;;;67.72;64.35;;;;;;;8.72;67.11;103089.88;5025903;28;20073;-70
2023/12/18 05:28:15;;;;;;;62.90;59.58;;;;;;;8.73;66.93;103092.41;5024856;28;20033;-71
2023/12/18 05:30:41;;;;;;;59.47;56.67;;;;;;;8.74;66.83;103095.94;5015811;28;20395;-71
2023/12/18 05:33:06;;;;;;;63.05;59.83;;;;;;;8.74;66.81;103093.22;5020382;28;20042;-71
2023/12/18 05:35:31;;;;;;;67.07;62.90;;;;;;;8.73;66.76;103095.09;5022356;28;20159;-70
2023/12/18 05:37:57;;;;;;;64.95;61.35;;;;;;;8.72;66.90;103106.03;5015611;28;20088;-70
2023/12/18 05:40:22;;;;;;;65.55;62.40;;;;;;;8.74;66.93;103106.72;5025829;28;20525;-70
2023/12/18 05:42:48;;;;;;;66.75;63.40;;;;;;;8.74;66.88;103109.41;5037687;28;20541;-70
2023/12/18 05:45:13;;;;;;;64.43;59.38;;;;;;;8.73;67.06;103105.88;5043647;28;20500;-70
2023/12/18 05:47:38;;;;;;;64.28;61.08;;;;;;;8.74;66.84;103104.00;5027337;28;20548;-71
2023/12/18 05:50:04;;;;;;;60.58;57.13;;;;;;;8.74;66.70;103106.72;5031297;28;20044;-71
2023/12/18 05:52:29;;;;;;;64.95;61.33;;;;;;;8.74;66.73;103107.53;5031189;28;20401;-70
2023/12/18 05:54:55;;;;;;;64.57;61.28;;;;;;;8.75;67.12;103094.94;5035453;28;20064;-69
2023/12/18 05:57:20;;;;;;;65.57;62.17;;;;;;;8.74;66.93;103101.31;5037742;28;20037;-70
2023/12/18 05:59:46;;;;;;;62.65;59.70;;;;;;;8.72;66.98;103096.13;5040853;28;20040;-70
2023/12/18 06:02:11;;;;;;;64.53;60.55;;;;;;;8.73;67.13;103099.66;5023400;28;20441;-69
2023/12/18 06:04:38;;;;;;;62.90;59.25;;;;;;;8.72;66.85;103103.34;5027459;28;20125;-70
2023/12/18 06:07:04;;;;;;;63.38;60.38;;;;;;;8.73;67.03;103096.97;5023128;28;20076;-71
2023/12/18 06:09:29;;;;;;;62.53;59.05;;;;;;;8.73;66.99;103095.09;5047165;28;20026;-71
2023/12/18 06:11:55;;;;;;;61.92;59.13;;;;;;;8.74;66.86;103095.94;5034449;28;20389;-71
2023/12/18 06:14:20;;;;;;;69.05;65.35;;;;;;;8.74;67.03;103099.47;5029283;28;20037;-70
2023/12/18 06:16:46;;;;;;;64.45;61.00;;;;;;;8.75;66.92;103103.03;5030438;28;20492;-70
2023/12/18 06:19:11;;;;;;;66.30;62.97;;;;;;;8.74;67.04;103101.31;5026813;28;20070;-70
2023/12/18 06:21:40;;;;;;;62.63;59.33;;;;;;;8.74;66.96;103102.16;5041591;28;20458;-70
2023/12/18 06:24:05;;;;;;;62.95;59.97;;;;;;;8.73;67.10;103105.88;5032059;28;20048;-70
2023/12/18 06:26:31;;;;;;;64.85;61.28;;;;;;;8.74;66.96;103098.63;5030100;28;20375;-71
2023/12/18 06:28:56;;;;;;;66.47;63.08;;;;;;;8.73;67.03;103094.25;5029445;28;20038;-71
2023/12/18 06:31:21;;;;;;;64.75;61.50;;;;;;;8.73;66.81;103096.97;5029361;28;20034;-70
2023/12/18 06:33:47;;;;;;;67.50;63.80;;;;;;;8.74;66.93;103090.53;5023710;28;20107;-70
2023/12/18 06:36:15;;;;;;;66.18;61.40;;;;;;;8.75;67.20;103086.84;5035757;28;20040;-69
2023/12/18 06:38:41;;;;;;;64.65;61.30;;;;;;;8.72;67.08;103077.25;5030552;28;20044;-69
2023/12/18 06:41:07;;;;;;;63.72;60.60;;;;;;;8.72;66.99;103068.31;5039967;28;20117;-69
2023/12/18 06:43:33;;;;;;;63.30;60.30;;;;;;;8.72;66.91;103076.41;5028691;28;20050;-70
2023/12/18 06:45:59;;;;;;;66.00;62.72;;;;;;;8.71;67.03;103080.94;5024972;28;20056;-70
2023/12/18 06:48:25;;;;;;;64.20;61.00;;;;;;;8.70;66.89;103084.66;5020211;28;20183;-72
2023/12/18 06:50:50;;;;;;;62.95;59.65;;;;;;;8.70;67.12;103081.97;5030541;28;20150;-70
2023/12/18 06:53:15;;;;;;;67.25;63.55;;;;;;;8.72;67.07;103088.03;5014715;28;20033;-70
2023/12/18 06:55:41;;;;;;;64.95;61.17;;;;;;;8.73;67.09;103095.09;5029110;28;20334;-71
2023/12/18 06:58:06;;;;;;;64.70;61.25;;;;;;;8.74;67.06;103096.75;5022880;28;20042;-70
2023/12/18 07:00:31;;;;;;;66.30;62.90;;;;;;;8.73;67.15;103078.94;5017025;28;20103;-71
2023/12/18 07:02:57;;;;;;;65.18;62.05;;;;;;;8.75;67.17;103100.31;5032793;28;20536;-72
2023/12/18 07:05:23;;;;;;;63.78;60.47;;;;;;;8.73;67.07;103094.25;5012516;28;20041;-68
2023/12/18 07:07:49;;;;;;;68.80;64.82;;;;;;;8.74;67.28;103107.53;5030661;28;20064;-70
2023/12/18 07:10:15;;;;;;;69.40;64.65;;;;;;;8.75;67.03;103108.41;5041777;28;20389;-70
2023/12/18 07:12:40;;;;;;;66.90;63.13;;;;;;;8.76;67.03;103110.91;5031897;28;20038;-71
2023/12/18 07:15:06;;;;;;;68.60;65.35;;;;;;;8.77;67.28;103109.06;5021170;28;20036;-71
2023/12/18 07:17:31;;;;;;;63.92;60.63;;;;;;;8.76;66.92;103110.06;5029201;28;20524;-71
2023/12/18 07:19:57;;;;;;;69.65;65.00;;;;;;;8.75;67.03;103101.16;5039702;28;20114;-71
2023/12/18 07:22:23;;;;;;;60.75;57.75;;;;;;;8.77;67.01;103114.44;5029020;28;20056;-70
2023/12/18 07:24:48;;;;;;;68.03;64.72;;;;;;;8.76;66.94;103110.06;5025318;28;20044;-68
2023/12/18 07:27:14;;;;;;;62.65;59.63;;;;;;;8.76;67.10;103113.59;5025759;28;20060;-70
2023/12/18 07:29:40;;;;;;;69.68;66.03;;;;;;;8.77;67.22;103109.06;5027669;28;20037;-69
2023/12/18 07:32:06;;;;;;;65.55;62.25;;;;;;;8.75;67.06;103114.63;5011128;28;20518;-69
2023/12/18 07:34:31;;;;;;;69.88;66.47;;;;;;;8.75;66.87;103106.53;5026145;28;20056;-71
2023/12/18 07:36:57;;;;;;;63.58;59.92;;;;;;;8.76;67.13;103110.91;5012213;28;20489;-69
2023/12/18 07:39:22;;;;;;;63.70;60.50;;;;;;;8.75;66.90;103103.03;5028351;28;20139;-69
2023/12/18 07:41:47;;;;;;;66.45;63.45;;;;;;;8.75;67.22;103109.25;5027232;28;20473;-70
2023/12/18 07:44:13;;;;;;;63.00;59.80;;;;;;;8.75;67.11;103109.25;5025891;28;20040;-69
2023/12/18 07:46:39;;;;;;;68.20;64.45;;;;;;;8.75;67.13;103109.25;5026553;28;20033;-70
2023/12/18 07:49:05;;;;;;;63.97;60.90;;;;;;;8.76;67.08;103110.06;5025424;28;20576;-72
2023/12/18 07:51:30;;;;;;;65.47;62.20;;;;;;;8.76;67.06;103099.28;5026187;28;20038;-69
2023/12/18 07:53:56;;;;;;;67.28;64.15;;;;;;;8.76;67.08;103104.69;5025676;28;20037;-71
2023/12/18 07:56:21;;;;;;;65.30;62.20;;;;;;;8.77;67.12;103092.88;5027530;28;20497;-70
2023/12/18 07:58:47;;;;;;;75.10;70.53;;;;;;;8.76;67.04;103096.59;5028118;28;20029;-70
2023/12/18 08:01:16;;;;;;;68.88;65.25;;;;;;;8.77;67.42;103100.97;5026464;28;20528;-70
2023/12/18 08:03:41;;;;;;;;;;;;;;;8.77;67.06;103098.28;5028219;28;20127;-70
2023/12/18 08:06:07;;;;;;;60.10;57.30;;;;;;;8.75;66.98;103103.03;5031968;28;19917;-72
2023/12/18 08:08:32;;;;;;;64.13;60.85;;;;;;;8.75;67.19;103090.38;5029707;28;20041;-70
2023/12/18 08:10:58;;;;;;;64.18;60.83;;;;;;;8.74;67.15;103095.94;5032563;28;20396;-69
2023/12/18 08:13:23;;;;;;;68.28;64.22;;;;;;;8.75;67.05;103092.25;5028446;28;20049;-71
2023/12/18 08:15:49;;;;;;;72.53;68.18;;;;;;;8.75;67.06;103092.25;5031452;28;20127;-70
2023/12/18 08:18:15;;;;;;;63.25;60.17;;;;;;;8.76;67.21;103086.66;5038004;28;20481;-70
2023/12/18 08:20:42;;;;;;;67.82;64.13;;;;;;;8.76;67.12;103085.81;5029423;28;20497;-70
2023/12/18 08:23:08;;;;;;;68.43;64.60;;;;;;;8.75;67.19;103093.06;5030130;28;20041;-71
2023/12/18 08:25:34;;;;;;;72.80;68.82;;;;;;;8.75;67.13;103093.06;5026604;28;20095;-70
2023/12/18 08:27:59;;;;;;;68.40;65.15;;;;;;;8.76;66.98;103091.22;5030253;28;20091;-70
2023/12/18 08:30:24;;;;;;;67.10;63.67;;;;;;;8.74;67.17;103077.91;5028949;28;20424;-70
2023/12/18 08:32:50;;;;;;;67.07;63.80;;;;;;;8.76;66.98;103092.06;5027392;28;20034;-70
2023/12/18 08:35:15;;;;;;;62.38;59.25;;;;;;;8.77;67.18;103087.50;5026109;28;20061;-69
2023/12/18 08:37:41;;;;;;;65.60;62.40;;;;;;;8.78;66.91;103091.88;5022855;28;20462;-70
2023/12/18 08:40:07;;;;;;;65.70;62.60;;;;;;;8.78;67.42;103078.41;5027561;28;20030;-70
2023/12/18 08:42:32;;;;;;;67.60;63.75;;;;;;;8.78;67.20;103086.50;5027597;28;20048;-71
2023/12/18 08:44:57;;;;;;;65.85;62.45;;;;;;;8.79;67.26;103082.78;5023793;28;20575;-73
2023/12/18 08:47:23;;;;;;;70.32;65.93;;;;;;;8.76;67.13;103083.97;5026068;28;20038;-70
2023/12/18 08:49:48;;;;;;;68.65;64.85;;;;;;;8.77;67.16;103080.28;5027716;28;20377;-71
2023/12/18 08:52:13;;;;;;;70.82;67.30;;;;;;;8.76;67.18;103083.97;5031036;28;20033;-70
2023/12/18 08:54:39;;;;;;;70.93;66.43;;;;;;;8.77;67.20;103084.78;5027621;28;20030;-70
2023/12/18 08:57:04;;;;;;;66.90;63.35;;;;;;;8.77;67.19;103076.72;5009215;28;20152;-70
2023/12/18 08:59:30;;;;;;;66.07;62.97;;;;;;;8.77;67.18;103077.59;5029051;28;20071;-70
2023/12/18 09:01:55;;;;;;;63.95;61.03;;;;;;;8.76;67.42;103078.56;5029680;28;20087;-70
2023/12/18 09:04:20;;;;;;;66.35;63.22;;;;;;;8.78;67.11;103073.03;5024543;28;20025;-69
2023/12/18 09:06:46;;;;;;;64.82;61.58;;;;;;;8.79;67.28;103072.00;5026402;28;20041;-71
2023/12/18 09:09:11;;;;;;;73.30;68.05;;;;;;;8.78;67.25;103076.56;5026609;28;20033;-71
2023/12/18 09:11:37;;;;;;;65.57;62.25;;;;;;;8.78;67.25;103075.72;5009466;28;20052;-70
2023/12/18 09:14:03;;;;;;;67.53;64.13;;;;;;;8.77;67.42;103080.28;5013442;28;20531;-72
2023/12/18 09:16:29;;;;;;;66.43;62.80;;;;;;;8.75;67.21;103076.91;5026110;28;20417;-70
2023/12/18 09:18:54;;;;;;;66.60;63.25;;;;;;;8.76;67.43;103072.34;5028795;28;20163;-71
2023/12/18 09:21:20;;;;;;;66.43;63.28;;;;;;;8.76;67.40;103069.66;5028450;28;20397;-71
2023/12/18 09:23:45;;;;;;;70.65;66.70;;;;;;;8.78;67.35;103081.09;5029911;28;20052;-71
2023/12/18 09:26:14;;;;;;;68.55;65.07;;;;;;;8.78;67.33;103078.41;5026185;28;20072;-71
2023/12/18 09:28:39;;;;;;;67.13;63.88;;;;;;;8.78;67.40;103079.25;5028353;28;20554;-71
2023/12/18 09:31:05;;;;;;;64.13;59.95;;;;;;;8.77;67.27;103082.97;5026789;28;20112;-71
2023/12/18 09:33:33;;;;;;;66.55;63.05;;;;;;;8.77;67.47;103079.41;5027524;28;20031;-71
2023/12/18 09:36:01;;;;;;;67.05;63.92;;;;;;;8.77;67.42;103069.50;5026272;28;20431;-71
2023/12/18 09:38:27;;;;;;;66.32;63.03;;;;;;;8.77;67.58;103076.72;5028742;28;20029;-70
2023/12/18 09:40:52;;;;;;;70.32;65.93;;;;;;;8.78;67.34;103079.25;5028457;28;20053;-71
2023/12/18 09:43:18;;;;;;;69.88;66.55;;;;;;;8.80;67.41;103081.78;5025279;28;20041;-70
2023/12/18 09:45:48;;;;;;;69.25;65.65;;;;;;;8.81;67.73;103078.91;5027623;28;20381;-70
2023/12/18 09:48:16;;;;;;;72.45;68.68;;;;;;;8.81;67.40;103065.41;5027351;28;20030;-70
2023/12/18 09:50:43;;;;;;;68.88;65.38;;;;;;;8.81;67.50;103064.59;5028384;28;20369;-71
2023/12/18 09:53:12;;;;;;;71.93;68.38;;;;;;;8.81;67.36;103061.88;5027673;28;20078;-70
2023/12/18 09:55:39;;;;;;;70.00;66.13;;;;;;;8.81;67.38;103065.41;5024247;28;20091;-73
2023/12/18 09:58:06;;;;;;;68.80;65.25;;;;;;;8.85;67.36;103068.63;5024481;28;20464;-77
2023/12/18 10:00:31;;;;;;;70.45;66.30;;;;;;;8.85;67.34;103071.31;5027438;28;20462;-71
2023/12/18 10:02:58;;;;;;;67.60;64.15;;;;;;;8.85;67.27;103071.31;5026985;28;20022;-70
2023/12/18 10:05:24;;;;;;;74.45;70.13;;;;;;;8.85;67.38;103068.63;5025722;28;20026;-71
2023/12/18 10:07:51;;;;;;;74.07;70.05;;;;;;;8.85;67.34;103069.47;5027965;28;20037;-71
2023/12/18 10:10:17;;;;;;;66.63;62.85;;;;;;;8.87;67.34;103072.00;5024046;28;20229;-71
2023/12/18 10:12:42;;;;;;;72.57;68.82;;;;;;;8.86;67.34;103076.50;5024538;28;20037;-71
2023/12/18 10:15:09;;;;;;;69.90;66.10;;;;;;;8.86;67.42;103067.59;5024394;28;20034;-70
2023/12/18 10:17:37;;;;;;;65.53;62.35;;;;;;;8.85;67.37;103065.94;5026734;28;20488;-72
2023/12/18 10:20:03;;;;;;;70.45;67.00;;;;;;;8.85;67.40;103068.63;5024723;28;20037;-71
2023/12/18 10:22:29;;;;;;;71.22;67.25;;;;;;;8.86;67.43;103078.38;5028674;28;20048;-70
2023/12/18 10:24:58;;;;;;;69.97;65.93;;;;;;;8.87;67.47;103074.69;5024821;28;20032;-71
2023/12/18 10:27:24;;;;;;;72.15;68.47;;;;;;;8.89;67.24;103067.25;5026304;28;20055;-70
2023/12/18 10:29:50;;;;;;;67.65;64.35;;;;;;;8.91;67.37;103067.06;5026627;28;20058;-69
2023/12/18 10:32:16;;;;;;;69.45;65.93;;;;;;;8.90;67.28;103060.84;5029032;28;20034;-71
2023/12/18 10:34:43;;;;;;;65.68;62.65;;;;;;;8.91;67.22;103056.31;5025260;28;20025;-72
2023/12/18 10:37:10;;;;;;;70.47;66.93;;;;;;;8.92;67.27;103049.88;5025746;28;20108;-70
2023/12/18 10:39:40;;;;;;;62.65;59.70;;;;;;;8.92;67.00;103039.09;5024575;28;20397;-83
2023/12/18 10:42:17;;;;;;;67.72;64.35;;;;;;;8.92;67.34;103042.66;5025471;28;20079;-71
2023/12/18 10:44:44;;;;;;;71.28;67.57;;;;;;;8.89;67.55;103040.28;5022962;28;20072;-70
2023/12/18 10:47:10;;;;;;;68.70;64.88;;;;;;;8.87;67.46;103039.66;5024986;28;20161;-71
2023/12/18 10:49:40;;;;;;;65.90;62.67;;;;;;;8.85;67.46;103033.59;5020835;28;20021;-71
2023/12/18 10:52:07;;;;;;;67.22;63.85;;;;;;;8.84;67.62;103031.88;5023562;28;20112;-70
2023/12/18 10:54:33;;;;;;;69.38;65.88;;;;;;;8.87;67.61;103031.56;5025711;28;20087;-71
2023/12/18 10:57:00;;;;;;;67.80;64.40;;;;;;;8.90;67.54;103033.06;5028761;28;20029;-70
2023/12/18 10:59:29;;;;;;;69.07;65.78;;;;;;;8.92;67.29;103029.19;5026278;28;20104;-69
2023/12/18 11:01:56;;;;;;;70.88;66.88;;;;;;;8.90;67.52;103019.59;5022980;28;20057;-70
2023/12/18 11:04:23;;;;;;;70.80;67.07;;;;;;;8.89;67.45;103021.41;5026828;28;20112;-69
2023/12/18 11:06:49;;;;;;;70.28;66.32;;;;;;;8.88;67.62;103015.19;5024168;28;20029;-70
2023/12/18 11:09:15;;;;;;;75.13;70.25;;;;;;;8.89;67.63;103013.34;5025914;28;20472;-71